sensor_id;sensor_type;location;lat;lon;timestamp;temperature;humidity
41318;DHT22;27067;51.554;7.026;2023-07-20T00:00:24;22.30;95.00
41318;DHT22;27067;51.554;7.026;2023-07-20T00:02:50;22.30;95.00
41318;DHT22;27067;51.554;7.026;2023-07-20T00:05:16;22.40;95.10
41318;DHT22;27067;51.554;7.026;2023-07-20T00:07:44;22.30;95.00
41318;DHT22;27067;51.554;7.026;2023-07-20T00:10:09;22.40;95.00
41318;DHT22;27067;51.554;7.026;2023-07-20T00:12:35;22.40;95.10
41318;DHT22;27067;51.554;7.026;2023-07-20T00:15:00;22.40;95.00
41318;DHT22;27067;51.554;7.026;2023-07-20T00:17:26;22.30;95.00
41318;DHT22;27067;51.554;7.026;2023-07-20T00:19:51;22.30;95.00
41318;DHT22;27067;51.554;7.026;2023-07-20T00:22:17;22.30;94.90
41318;DHT22;27067;51.554;7.026;2023-07-20T00:24:43;22.40;94.90
41318;DHT22;27067;51.554;7.026;2023-07-20T00:27:08;22.30;94.90
41318;DHT22;27067;51.554;7.026;2023-07-20T00:29:34;22.30;94.80
41318;DHT22;27067;51.554;7.026;2023-07-20T00:32:00;22.30;94.80
41318;DHT22;27067;51.554;7.026;2023-07-20T00:34:26;22.30;94.90
41318;DHT22;27067;51.554;7.026;2023-07-20T00:36:51;22.30;94.90
41318;DHT22;27067;51.554;7.026;2023-07-20T00:39:17;22.30;94.90
41318;DHT22;27067;51.554;7.026;2023-07-20T00:41:43;22.30;94.90
41318;DHT22;27067;51.554;7.026;2023-07-20T00:44:08;22.30;94.90
41318;DHT22;27067;51.554;7.026;2023-07-20T00:46:34;22.30;94.90
41318;DHT22;27067;51.554;7.026;2023-07-20T00:48:59;22.30;95.00
41318;DHT22;27067;51.554;7.026;2023-07-20T00:51:25;22.30;95.00
41318;DHT22;27067;51.554;7.026;2023-07-20T00:53:51;22.30;95.00
41318;DHT22;27067;51.554;7.026;2023-07-20T00:56:17;22.30;95.00
41318;DHT22;27067;51.554;7.026;2023-07-20T00:58:43;22.30;95.00
41318;DHT22;27067;51.554;7.026;2023-07-20T01:01:09;22.30;95.00
41318;DHT22;27067;51.554;7.026;2023-07-20T01:03:34;22.30;95.00
41318;DHT22;27067;51.554;7.026;2023-07-20T01:06:47;22.30;95.00
41318;DHT22;27067;51.554;7.026;2023-07-20T01:08:47;22.30;94.90
41318;DHT22;27067;51.554;7.026;2023-07-20T01:11:16;22.30;95.20
41318;DHT22;27067;51.554;7.026;2023-07-20T01:13:47;22.30;94.90
41318;DHT22;27067;51.554;7.026;2023-07-20T01:16:13;22.30;94.90
41318;DHT22;27067;51.554;7.026;2023-07-20T01:18:38;22.30;94.90
41318;DHT22;27067;51.554;7.026;2023-07-20T01:21:13;22.30;94.90
41318;DHT22;27067;51.554;7.026;2023-07-20T01:34:09;22.20;94.90
41318;DHT22;27067;51.554;7.026;2023-07-20T01:36:36;22.30;94.90
41318;DHT22;27067;51.554;7.026;2023-07-20T01:39:02;22.30;94.90
41318;DHT22;27067;51.554;7.026;2023-07-20T01:41:30;22.20;94.90
41318;DHT22;27067;51.554;7.026;2023-07-20T01:43:58;22.20;94.90
41318;DHT22;27067;51.554;7.026;2023-07-20T01:46:24;22.20;94.80
41318;DHT22;27067;51.554;7.026;2023-07-20T01:48:50;22.20;94.80
41318;DHT22;27067;51.554;7.026;2023-07-20T01:51:16;22.20;94.90
41318;DHT22;27067;51.554;7.026;2023-07-20T01:53:43;22.20;95.00
41318;DHT22;27067;51.554;7.026;2023-07-20T01:56:08;22.20;95.00
41318;DHT22;27067;51.554;7.026;2023-07-20T01:58:34;22.20;95.10
41318;DHT22;27067;51.554;7.026;2023-07-20T02:01:00;22.20;95.10
41318;DHT22;27067;51.554;7.026;2023-07-20T02:03:26;22.20;95.00
41318;DHT22;27067;51.554;7.026;2023-07-20T02:05:52;22.20;95.10
41318;DHT22;27067;51.554;7.026;2023-07-20T02:08:17;22.20;95.10
41318;DHT22;27067;51.554;7.026;2023-07-20T02:10:47;22.20;95.10
41318;DHT22;27067;51.554;7.026;2023-07-20T02:13:12;22.20;95.10
41318;DHT22;27067;51.554;7.026;2023-07-20T02:15:38;22.20;95.00
41318;DHT22;27067;51.554;7.026;2023-07-20T02:18:03;22.20;95.10
41318;DHT22;27067;51.554;7.026;2023-07-20T02:20:29;22.20;95.10
41318;DHT22;27067;51.554;7.026;2023-07-20T02:22:54;22.20;95.00
41318;DHT22;27067;51.554;7.026;2023-07-20T02:25:21;22.20;95.10
41318;DHT22;27067;51.554;7.026;2023-07-20T02:27:46;22.20;95.40
41318;DHT22;27067;51.554;7.026;2023-07-20T02:30:12;22.10;95.30
41318;DHT22;27067;51.554;7.026;2023-07-20T02:32:39;22.10;95.30
41318;DHT22;27067;51.554;7.026;2023-07-20T02:35:04;22.10;95.30
41318;DHT22;27067;51.554;7.026;2023-07-20T02:37:30;22.10;95.30
41318;DHT22;27067;51.554;7.026;2023-07-20T02:39:56;22.10;95.30
41318;DHT22;27067;51.554;7.026;2023-07-20T02:42:21;22.10;95.30
41318;DHT22;27067;51.554;7.026;2023-07-20T02:44:48;22.10;95.30
41318;DHT22;27067;51.554;7.026;2023-07-20T02:47:13;22.10;95.30
41318;DHT22;27067;51.554;7.026;2023-07-20T02:49:39;22.10;95.30
41318;DHT22;27067;51.554;7.026;2023-07-20T02:52:04;22.10;95.30
41318;DHT22;27067;51.554;7.026;2023-07-20T02:54:30;22.10;95.40
41318;DHT22;27067;51.554;7.026;2023-07-20T02:56:56;22.10;95.40
41318;DHT22;27067;51.554;7.026;2023-07-20T02:59:21;22.10;95.30
41318;DHT22;27067;51.554;7.026;2023-07-20T03:01:47;22.10;95.30
41318;DHT22;27067;51.554;7.026;2023-07-20T03:04:13;22.00;95.30
41318;DHT22;27067;51.554;7.026;2023-07-20T03:06:38;22.00;95.40
41318;DHT22;27067;51.554;7.026;2023-07-20T03:09:04;22.00;95.50
41318;DHT22;27067;51.554;7.026;2023-07-20T03:11:30;22.00;95.50
41318;DHT22;27067;51.554;7.026;2023-07-20T03:13:55;22.00;95.50
41318;DHT22;27067;51.554;7.026;2023-07-20T03:16:21;22.00;95.50
41318;DHT22;27067;51.554;7.026;2023-07-20T03:18:47;22.00;95.50
41318;DHT22;27067;51.554;7.026;2023-07-20T03:21:12;22.00;95.50
41318;DHT22;27067;51.554;7.026;2023-07-20T03:23:38;22.00;95.50
41318;DHT22;27067;51.554;7.026;2023-07-20T03:26:04;22.00;95.50
41318;DHT22;27067;51.554;7.026;2023-07-20T03:28:30;22.00;95.50
41318;DHT22;27067;51.554;7.026;2023-07-20T03:30:56;22.00;95.60
41318;DHT22;27067;51.554;7.026;2023-07-20T03:33:25;22.00;95.80
41318;DHT22;27067;51.554;7.026;2023-07-20T03:35:52;22.00;95.80
41318;DHT22;27067;51.554;7.026;2023-07-20T03:38:17;22.00;95.80
41318;DHT22;27067;51.554;7.026;2023-07-20T03:40:59;22.00;95.60
41318;DHT22;27067;51.554;7.026;2023-07-20T03:43:25;22.00;95.80
41318;DHT22;27067;51.554;7.026;2023-07-20T03:45:51;22.00;95.80
41318;DHT22;27067;51.554;7.026;2023-07-20T03:48:17;22.00;96.60
41318;DHT22;27067;51.554;7.026;2023-07-20T03:50:46;22.00;96.90
41318;DHT22;27067;51.554;7.026;2023-07-20T03:53:12;22.00;97.70
41318;DHT22;27067;51.554;7.026;2023-07-20T03:55:38;22.00;98.00
41318;DHT22;27067;51.554;7.026;2023-07-20T03:58:06;22.00;97.90
41318;DHT22;27067;51.554;7.026;2023-07-20T04:00:32;22.00;98.10
41318;DHT22;27067;51.554;7.026;2023-07-20T04:02:58;22.00;98.00
41318;DHT22;27067;51.554;7.026;2023-07-20T04:05:24;21.90;97.70
41318;DHT22;27067;51.554;7.026;2023-07-20T04:07:49;21.90;97.80
41318;DHT22;27067;51.554;7.026;2023-07-20T04:10:16;21.90;97.70
41318;DHT22;27067;51.554;7.026;2023-07-20T04:12:42;21.90;97.60
41318;DHT22;27067;51.554;7.026;2023-07-20T04:15:08;21.90;97.50
41318;DHT22;27067;51.554;7.026;2023-07-20T04:17:34;21.90;97.10
41318;DHT22;27067;51.554;7.026;2023-07-20T04:19:59;21.90;96.80
41318;DHT22;27067;51.554;7.026;2023-07-20T04:22:25;21.90;96.40
41318;DHT22;27067;51.554;7.026;2023-07-20T04:24:51;21.80;96.90
41318;DHT22;27067;51.554;7.026;2023-07-20T04:27:16;21.80;97.20
41318;DHT22;27067;51.554;7.026;2023-07-20T04:29:42;21.80;97.20
41318;DHT22;27067;51.554;7.026;2023-07-20T04:32:07;21.80;97.20
41318;DHT22;27067;51.554;7.026;2023-07-20T04:34:33;21.80;97.20
41318;DHT22;27067;51.554;7.026;2023-07-20T04:37:03;21.80;97.10
41318;DHT22;27067;51.554;7.026;2023-07-20T04:39:28;21.80;97.00
41318;DHT22;27067;51.554;7.026;2023-07-20T04:41:54;21.80;97.00
41318;DHT22;27067;51.554;7.026;2023-07-20T04:44:19;21.80;97.00
41318;DHT22;27067;51.554;7.026;2023-07-20T04:46:45;21.80;97.00
41318;DHT22;27067;51.554;7.026;2023-07-20T04:49:10;21.80;96.90
41318;DHT22;27067;51.554;7.026;2023-07-20T04:51:38;21.80;97.00
41318;DHT22;27067;51.554;7.026;2023-07-20T04:54:03;21.80;97.00
41318;DHT22;27067;51.554;7.026;2023-07-20T04:56:29;21.80;96.90
41318;DHT22;27067;51.554;7.026;2023-07-20T04:58:54;21.80;97.00
41318;DHT22;27067;51.554;7.026;2023-07-20T05:01:20;21.80;97.00
41318;DHT22;27067;51.554;7.026;2023-07-20T05:03:45;21.80;96.80
41318;DHT22;27067;51.554;7.026;2023-07-20T05:06:11;21.80;96.90
41318;DHT22;27067;51.554;7.026;2023-07-20T05:08:37;21.70;96.90
41318;DHT22;27067;51.554;7.026;2023-07-20T05:11:04;21.80;97.00
41318;DHT22;27067;51.554;7.026;2023-07-20T05:13:29;21.80;96.90
41318;DHT22;27067;51.554;7.026;2023-07-20T05:15:55;21.80;96.90
41318;DHT22;27067;51.554;7.026;2023-07-20T05:18:20;21.80;96.80
41318;DHT22;27067;51.554;7.026;2023-07-20T05:20:46;21.70;96.70
41318;DHT22;27067;51.554;7.026;2023-07-20T05:23:12;21.80;96.80
41318;DHT22;27067;51.554;7.026;2023-07-20T05:25:38;21.70;96.70
41318;DHT22;27067;51.554;7.026;2023-07-20T05:28:03;21.70;96.70
41318;DHT22;27067;51.554;7.026;2023-07-20T05:30:29;21.70;96.70
41318;DHT22;27067;51.554;7.026;2023-07-20T05:32:54;21.70;96.30
41318;DHT22;27067;51.554;7.026;2023-07-20T05:35:20;21.70;96.60
41318;DHT22;27067;51.554;7.026;2023-07-20T05:37:45;21.70;96.30
41318;DHT22;27067;51.554;7.026;2023-07-20T05:40:11;21.60;96.50
41318;DHT22;27067;51.554;7.026;2023-07-20T05:42:40;21.70;96.00
41318;DHT22;27067;51.554;7.026;2023-07-20T05:45:06;21.60;96.30
41318;DHT22;27067;51.554;7.026;2023-07-20T05:47:31;21.60;96.70
41318;DHT22;27067;51.554;7.026;2023-07-20T05:49:57;21.60;96.00
41318;DHT22;27067;51.554;7.026;2023-07-20T05:52:22;21.60;95.80
41318;DHT22;27067;51.554;7.026;2023-07-20T05:54:48;21.60;96.60
41318;DHT22;27067;51.554;7.026;2023-07-20T05:57:13;21.60;95.90
41318;DHT22;27067;51.554;7.026;2023-07-20T05:59:39;21.60;95.70
41318;DHT22;27067;51.554;7.026;2023-07-20T06:02:06;21.60;95.40
41318;DHT22;27067;51.554;7.026;2023-07-20T06:04:32;21.50;96.00
41318;DHT22;27067;51.554;7.026;2023-07-20T06:06:58;21.50;95.70
41318;DHT22;27067;51.554;7.026;2023-07-20T06:09:23;21.50;96.30
41318;DHT22;27067;51.554;7.026;2023-07-20T06:11:49;21.50;96.50
41318;DHT22;27067;51.554;7.026;2023-07-20T06:14:14;21.50;97.40
41318;DHT22;27067;51.554;7.026;2023-07-20T06:16:40;21.60;99.70
41318;DHT22;27067;51.554;7.026;2023-07-20T06:19:06;21.60;99.90
41318;DHT22;27067;51.554;7.026;2023-07-20T06:21:31;21.70;99.90
41318;DHT22;27067;51.554;7.026;2023-07-20T06:23:57;21.70;99.90
41318;DHT22;27067;51.554;7.026;2023-07-20T06:26:22;21.70;99.00
41318;DHT22;27067;51.554;7.026;2023-07-20T06:28:48;21.60;99.30
41318;DHT22;27067;51.554;7.026;2023-07-20T06:31:13;21.60;99.20
41318;DHT22;27067;51.554;7.026;2023-07-20T06:33:39;21.60;98.50
41318;DHT22;27067;51.554;7.026;2023-07-20T06:36:04;21.60;97.50
41318;DHT22;27067;51.554;7.026;2023-07-20T06:38:30;21.50;97.10
41318;DHT22;27067;51.554;7.026;2023-07-20T06:40:55;21.50;98.20
41318;DHT22;27067;51.554;7.026;2023-07-20T06:43:21;21.50;98.20
41318;DHT22;27067;51.554;7.026;2023-07-20T06:45:53;21.50;98.10
41318;DHT22;27067;51.554;7.026;2023-07-20T06:48:19;21.50;98.10
41318;DHT22;27067;51.554;7.026;2023-07-20T06:50:44;21.50;97.60
41318;DHT22;27067;51.554;7.026;2023-07-20T06:53:10;21.50;97.70
41318;DHT22;27067;51.554;7.026;2023-07-20T06:55:35;21.50;96.60
41318;DHT22;27067;51.554;7.026;2023-07-20T06:58:01;21.50;96.70
41318;DHT22;27067;51.554;7.026;2023-07-20T07:00:26;21.50;97.00
41318;DHT22;27067;51.554;7.026;2023-07-20T07:02:52;21.40;96.90
41318;DHT22;27067;51.554;7.026;2023-07-20T07:05:17;21.40;96.10
41318;DHT22;27067;51.554;7.026;2023-07-20T07:07:43;21.40;95.50
41318;DHT22;27067;51.554;7.026;2023-07-20T07:10:09;21.40;95.50
41318;DHT22;27067;51.554;7.026;2023-07-20T07:12:34;21.30;95.50
41318;DHT22;27067;51.554;7.026;2023-07-20T07:15:04;21.30;96.60
41318;DHT22;27067;51.554;7.026;2023-07-20T07:17:31;21.30;96.90
41318;DHT22;27067;51.554;7.026;2023-07-20T07:19:58;21.30;95.90
41318;DHT22;27067;51.554;7.026;2023-07-20T07:22:24;21.30;95.20
41318;DHT22;27067;51.554;7.026;2023-07-20T07:24:49;21.30;95.10
41318;DHT22;27067;51.554;7.026;2023-07-20T07:27:15;21.20;95.40
41318;DHT22;27067;51.554;7.026;2023-07-20T07:29:41;21.20;95.10
41318;DHT22;27067;51.554;7.026;2023-07-20T07:32:09;21.20;95.10
41318;DHT22;27067;51.554;7.026;2023-07-20T07:34:35;21.10;94.70
41318;DHT22;27067;51.554;7.026;2023-07-20T07:37:01;21.10;94.60
41318;DHT22;27067;51.554;7.026;2023-07-20T07:39:26;21.00;94.60
41318;DHT22;27067;51.554;7.026;2023-07-20T07:41:52;21.00;95.00
41318;DHT22;27067;51.554;7.026;2023-07-20T07:44:17;21.10;96.20
41318;DHT22;27067;51.554;7.026;2023-07-20T07:46:43;21.10;96.40
41318;DHT22;27067;51.554;7.026;2023-07-20T07:49:08;21.10;95.30
41318;DHT22;27067;51.554;7.026;2023-07-20T07:51:34;21.10;94.60
41318;DHT22;27067;51.554;7.026;2023-07-20T07:53:59;21.10;94.60
41318;DHT22;27067;51.554;7.026;2023-07-20T07:56:25;21.10;95.50
41318;DHT22;27067;51.554;7.026;2023-07-20T07:58:51;21.10;94.70
41318;DHT22;27067;51.554;7.026;2023-07-20T08:01:19;21.00;95.20
41318;DHT22;27067;51.554;7.026;2023-07-20T08:03:45;21.10;96.30
41318;DHT22;27067;51.554;7.026;2023-07-20T08:06:12;21.20;96.40
41318;DHT22;27067;51.554;7.026;2023-07-20T08:08:38;21.20;96.50
41318;DHT22;27067;51.554;7.026;2023-07-20T08:11:04;21.30;96.30
41318;DHT22;27067;51.554;7.026;2023-07-20T08:13:29;21.30;96.10
41318;DHT22;27067;51.554;7.026;2023-07-20T08:15:55;21.30;95.80
41318;DHT22;27067;51.554;7.026;2023-07-20T08:18:20;21.30;95.70
41318;DHT22;27067;51.554;7.026;2023-07-20T08:20:46;21.30;95.40
41318;DHT22;27067;51.554;7.026;2023-07-20T08:23:13;21.30;95.20
41318;DHT22;27067;51.554;7.026;2023-07-20T08:25:39;21.30;95.00
41318;DHT22;27067;51.554;7.026;2023-07-20T08:28:07;21.30;94.90
41318;DHT22;27067;51.554;7.026;2023-07-20T08:30:42;21.30;94.70
41318;DHT22;27067;51.554;7.026;2023-07-20T08:33:09;21.30;94.50
41318;DHT22;27067;51.554;7.026;2023-07-20T08:35:34;21.40;94.40
41318;DHT22;27067;51.554;7.026;2023-07-20T08:38:00;21.40;94.20
41318;DHT22;27067;51.554;7.026;2023-07-20T08:40:25;21.40;93.90
41318;DHT22;27067;51.554;7.026;2023-07-20T08:42:51;21.30;93.40
41318;DHT22;27067;51.554;7.026;2023-07-20T08:45:17;21.30;93.90
41318;DHT22;27067;51.554;7.026;2023-07-20T08:47:43;21.30;93.50
41318;DHT22;27067;51.554;7.026;2023-07-20T08:50:10;21.30;93.90
41318;DHT22;27067;51.554;7.026;2023-07-20T08:52:36;21.20;93.90
41318;DHT22;27067;51.554;7.026;2023-07-20T08:55:04;21.20;93.40
41318;DHT22;27067;51.554;7.026;2023-07-20T08:57:33;21.20;93.40
41318;DHT22;27067;51.554;7.026;2023-07-20T09:00:02;21.20;92.30
41318;DHT22;27067;51.554;7.026;2023-07-20T09:02:30;21.20;92.50
41318;DHT22;27067;51.554;7.026;2023-07-20T09:05:00;21.20;93.30
41318;DHT22;27067;51.554;7.026;2023-07-20T09:07:30;21.20;92.40
41318;DHT22;27067;51.554;7.026;2023-07-20T09:09:57;21.20;92.90
41318;DHT22;27067;51.554;7.026;2023-07-20T09:12:22;21.20;91.40
41318;DHT22;27067;51.554;7.026;2023-07-20T09:14:48;21.10;91.20
41318;DHT22;27067;51.554;7.026;2023-07-20T09:17:14;21.10;91.40
41318;DHT22;27067;51.554;7.026;2023-07-20T09:19:46;21.10;90.70
41318;DHT22;27067;51.554;7.026;2023-07-20T09:22:12;21.00;91.90
41318;DHT22;27067;51.554;7.026;2023-07-20T09:24:38;21.00;92.10
41318;DHT22;27067;51.554;7.026;2023-07-20T09:27:04;21.00;92.60
41318;DHT22;27067;51.554;7.026;2023-07-20T09:29:29;21.00;91.00
41318;DHT22;27067;51.554;7.026;2023-07-20T09:32:04;21.10;92.90
41318;DHT22;27067;51.554;7.026;2023-07-20T09:34:30;21.20;93.00
41318;DHT22;27067;51.554;7.026;2023-07-20T09:36:57;21.20;91.00
41318;DHT22;27067;51.554;7.026;2023-07-20T09:39:23;21.10;90.10
41318;DHT22;27067;51.554;7.026;2023-07-20T09:41:48;21.10;91.10
41318;DHT22;27067;51.554;7.026;2023-07-20T09:44:14;21.10;91.80
41318;DHT22;27067;51.554;7.026;2023-07-20T09:46:47;21.10;90.60
41318;DHT22;27067;51.554;7.026;2023-07-20T09:49:12;21.10;91.90
41318;DHT22;27067;51.554;7.026;2023-07-20T09:51:38;21.10;92.10
41318;DHT22;27067;51.554;7.026;2023-07-20T09:54:05;21.20;92.10
41318;DHT22;27067;51.554;7.026;2023-07-20T09:56:30;21.10;91.30
41318;DHT22;27067;51.554;7.026;2023-07-20T09:58:58;21.10;90.90
41318;DHT22;27067;51.554;7.026;2023-07-20T10:01:23;21.10;90.80
41318;DHT22;27067;51.554;7.026;2023-07-20T10:03:51;21.10;90.60
41318;DHT22;27067;51.554;7.026;2023-07-20T10:06:19;21.10;92.60
41318;DHT22;27067;51.554;7.026;2023-07-20T10:08:45;21.10;93.10
41318;DHT22;27067;51.554;7.026;2023-07-20T10:11:12;21.20;93.20
41318;DHT22;27067;51.554;7.026;2023-07-20T10:13:40;21.20;92.70
41318;DHT22;27067;51.554;7.026;2023-07-20T10:16:07;21.20;92.60
41318;DHT22;27067;51.554;7.026;2023-07-20T10:18:42;21.20;92.30
41318;DHT22;27067;51.554;7.026;2023-07-20T10:21:13;21.20;91.20
41318;DHT22;27067;51.554;7.026;2023-07-20T10:23:42;21.20;91.50
41318;DHT22;27067;51.554;7.026;2023-07-20T10:26:07;21.20;91.30
41318;DHT22;27067;51.554;7.026;2023-07-20T10:28:33;21.20;91.20
41318;DHT22;27067;51.554;7.026;2023-07-20T10:30:59;21.20;90.80
41318;DHT22;27067;51.554;7.026;2023-07-20T10:33:24;21.20;90.60
41318;DHT22;27067;51.554;7.026;2023-07-20T10:35:51;21.30;90.50
41318;DHT22;27067;51.554;7.026;2023-07-20T10:38:17;21.30;90.40
41318;DHT22;27067;51.554;7.026;2023-07-20T10:40:42;21.30;90.10
41318;DHT22;27067;51.554;7.026;2023-07-20T10:43:08;21.30;89.20
41318;DHT22;27067;51.554;7.026;2023-07-20T10:45:41;21.30;88.80
41318;DHT22;27067;51.554;7.026;2023-07-20T10:50:40;21.30;89.40
41318;DHT22;27067;51.554;7.026;2023-07-20T10:53:15;21.30;89.00
41318;DHT22;27067;51.554;7.026;2023-07-20T10:55:41;21.30;88.10
41318;DHT22;27067;51.554;7.026;2023-07-20T10:58:11;21.20;87.90
41318;DHT22;27067;51.554;7.026;2023-07-20T11:00:37;21.20;87.30
41318;DHT22;27067;51.554;7.026;2023-07-20T11:03:03;21.20;87.40
41318;DHT22;27067;51.554;7.026;2023-07-20T11:07:58;21.20;87.00
41318;DHT22;27067;51.554;7.026;2023-07-20T11:10:24;21.20;87.40
41318;DHT22;27067;51.554;7.026;2023-07-20T11:15:46;21.30;86.80
41318;DHT22;27067;51.554;7.026;2023-07-20T11:18:12;21.30;87.00
41318;DHT22;27067;51.554;7.026;2023-07-20T11:20:38;21.30;87.30
41318;DHT22;27067;51.554;7.026;2023-07-20T11:23:04;21.30;87.00
41318;DHT22;27067;51.554;7.026;2023-07-20T11:25:36;21.40;86.50
41318;DHT22;27067;51.554;7.026;2023-07-20T11:28:04;21.40;86.40
41318;DHT22;27067;51.554;7.026;2023-07-20T11:30:32;21.30;78.90
41318;DHT22;27067;51.554;7.026;2023-07-20T11:32:58;21.20;81.50
41318;DHT22;27067;51.554;7.026;2023-07-20T11:35:23;21.20;81.10
41318;DHT22;27067;51.554;7.026;2023-07-20T11:37:49;21.20;81.90
41318;DHT22;27067;51.554;7.026;2023-07-20T11:40:15;21.20;81.90
41318;DHT22;27067;51.554;7.026;2023-07-20T11:42:40;21.20;83.80
41318;DHT22;27067;51.554;7.026;2023-07-20T11:45:06;21.20;83.90
41318;DHT22;27067;51.554;7.026;2023-07-20T11:47:32;21.30;84.50
41318;DHT22;27067;51.554;7.026;2023-07-20T11:50:02;21.30;84.90
41318;DHT22;27067;51.554;7.026;2023-07-20T11:52:28;21.40;85.10
41318;DHT22;27067;51.554;7.026;2023-07-20T11:54:54;21.40;84.50
41318;DHT22;27067;51.554;7.026;2023-07-20T11:57:20;21.40;83.30
41318;DHT22;27067;51.554;7.026;2023-07-20T12:02:22;21.40;82.00
41318;DHT22;27067;51.554;7.026;2023-07-20T12:04:50;21.40;82.10
41318;DHT22;27067;51.554;7.026;2023-07-20T12:07:15;21.40;82.80
41318;DHT22;27067;51.554;7.026;2023-07-20T12:09:41;21.40;80.40
41318;DHT22;27067;51.554;7.026;2023-07-20T12:12:10;21.30;81.40
41318;DHT22;27067;51.554;7.026;2023-07-20T12:14:38;21.30;82.60
41318;DHT22;27067;51.554;7.026;2023-07-20T12:17:04;21.20;81.60
41318;DHT22;27067;51.554;7.026;2023-07-20T12:19:29;21.20;82.30
41318;DHT22;27067;51.554;7.026;2023-07-20T12:21:57;21.30;79.60
41318;DHT22;27067;51.554;7.026;2023-07-20T12:24:24;21.20;78.10
41318;DHT22;27067;51.554;7.026;2023-07-20T12:26:55;21.20;80.20
41318;DHT22;27067;51.554;7.026;2023-07-20T12:29:21;21.30;79.70
41318;DHT22;27067;51.554;7.026;2023-07-20T12:31:46;21.30;80.40
41318;DHT22;27067;51.554;7.026;2023-07-20T12:34:12;21.40;79.60
41318;DHT22;27067;51.554;7.026;2023-07-20T12:36:37;21.40;79.10
41318;DHT22;27067;51.554;7.026;2023-07-20T12:39:03;21.40;78.40
41318;DHT22;27067;51.554;7.026;2023-07-20T12:41:30;21.40;77.30
41318;DHT22;27067;51.554;7.026;2023-07-20T12:43:56;21.40;78.50
41318;DHT22;27067;51.554;7.026;2023-07-20T12:46:23;21.40;78.70
41318;DHT22;27067;51.554;7.026;2023-07-20T12:48:48;21.40;75.80
41318;DHT22;27067;51.554;7.026;2023-07-20T12:51:14;21.40;76.70
41318;DHT22;27067;51.554;7.026;2023-07-20T12:53:40;21.50;76.90
41318;DHT22;27067;51.554;7.026;2023-07-20T12:56:05;21.50;77.40
41318;DHT22;27067;51.554;7.026;2023-07-20T12:58:31;21.50;76.90
41318;DHT22;27067;51.554;7.026;2023-07-20T13:00:56;21.50;76.20
41318;DHT22;27067;51.554;7.026;2023-07-20T13:03:22;21.50;77.00
41318;DHT22;27067;51.554;7.026;2023-07-20T13:05:47;21.50;77.80
41318;DHT22;27067;51.554;7.026;2023-07-20T13:08:13;21.50;76.10
41318;DHT22;27067;51.554;7.026;2023-07-20T13:10:39;21.40;75.30
41318;DHT22;27067;51.554;7.026;2023-07-20T13:13:04;21.30;75.40
41318;DHT22;27067;51.554;7.026;2023-07-20T13:15:40;21.30;76.00
41318;DHT22;27067;51.554;7.026;2023-07-20T13:18:06;21.30;77.90
41318;DHT22;27067;51.554;7.026;2023-07-20T13:20:31;21.30;76.60
41318;DHT22;27067;51.554;7.026;2023-07-20T13:22:57;21.30;77.30
41318;DHT22;27067;51.554;7.026;2023-07-20T13:25:23;21.30;75.30
41318;DHT22;27067;51.554;7.026;2023-07-20T13:27:48;21.30;75.40
41318;DHT22;27067;51.554;7.026;2023-07-20T13:30:14;21.30;75.50
41318;DHT22;27067;51.554;7.026;2023-07-20T13:32:45;21.20;76.60
41318;DHT22;27067;51.554;7.026;2023-07-20T13:35:11;21.20;79.00
41318;DHT22;27067;51.554;7.026;2023-07-20T13:37:36;21.30;79.60
41318;DHT22;27067;51.554;7.026;2023-07-20T13:40:02;21.40;78.60
41318;DHT22;27067;51.554;7.026;2023-07-20T13:42:30;21.40;78.70
41318;DHT22;27067;51.554;7.026;2023-07-20T13:44:55;21.30;77.90
41318;DHT22;27067;51.554;7.026;2023-07-20T13:47:21;21.30;78.50
41318;DHT22;27067;51.554;7.026;2023-07-20T13:49:46;21.40;78.00
41318;DHT22;27067;51.554;7.026;2023-07-20T13:52:12;21.40;75.50
41318;DHT22;27067;51.554;7.026;2023-07-20T13:54:37;21.40;77.60
41318;DHT22;27067;51.554;7.026;2023-07-20T13:57:03;21.40;77.30
41318;DHT22;27067;51.554;7.026;2023-07-20T13:59:28;21.40;76.70
41318;DHT22;27067;51.554;7.026;2023-07-20T14:01:54;21.50;77.40
41318;DHT22;27067;51.554;7.026;2023-07-20T14:04:19;21.50;76.70
41318;DHT22;27067;51.554;7.026;2023-07-20T14:06:45;21.50;77.60
41318;DHT22;27067;51.554;7.026;2023-07-20T14:09:11;21.60;80.30
41318;DHT22;27067;51.554;7.026;2023-07-20T14:11:37;21.60;78.70
41318;DHT22;27067;51.554;7.026;2023-07-20T14:14:02;21.60;76.50
41318;DHT22;27067;51.554;7.026;2023-07-20T14:16:28;21.60;79.40
41318;DHT22;27067;51.554;7.026;2023-07-20T14:18:53;21.70;80.10
41318;DHT22;27067;51.554;7.026;2023-07-20T14:21:19;21.70;78.60
41318;DHT22;27067;51.554;7.026;2023-07-20T14:23:45;21.70;78.70
41318;DHT22;27067;51.554;7.026;2023-07-20T14:26:11;21.70;78.00
41318;DHT22;27067;51.554;7.026;2023-07-20T14:28:37;21.70;76.70
41318;DHT22;27067;51.554;7.026;2023-07-20T14:31:03;21.70;76.00
41318;DHT22;27067;51.554;7.026;2023-07-20T14:33:28;21.70;79.50
41318;DHT22;27067;51.554;7.026;2023-07-20T14:35:54;21.70;80.40
41318;DHT22;27067;51.554;7.026;2023-07-20T14:38:19;21.70;82.50
41318;DHT22;27067;51.554;7.026;2023-07-20T14:40:45;21.70;83.40
41318;DHT22;27067;51.554;7.026;2023-07-20T14:43:11;21.70;83.60
41318;DHT22;27067;51.554;7.026;2023-07-20T14:45:36;21.70;80.00
41318;DHT22;27067;51.554;7.026;2023-07-20T14:48:03;21.60;82.30
41318;DHT22;27067;51.554;7.026;2023-07-20T14:50:29;21.60;83.10
41318;DHT22;27067;51.554;7.026;2023-07-20T14:52:54;21.60;82.00
41318;DHT22;27067;51.554;7.026;2023-07-20T14:55:20;21.60;80.70
41318;DHT22;27067;51.554;7.026;2023-07-20T14:57:45;21.60;83.20
41318;DHT22;27067;51.554;7.026;2023-07-20T15:00:11;21.70;84.30
41318;DHT22;27067;51.554;7.026;2023-07-20T15:02:37;21.70;85.00
41318;DHT22;27067;51.554;7.026;2023-07-20T15:05:02;21.70;85.10
41318;DHT22;27067;51.554;7.026;2023-07-20T15:07:28;21.60;85.40
41318;DHT22;27067;51.554;7.026;2023-07-20T15:09:53;21.70;85.70
41318;DHT22;27067;51.554;7.026;2023-07-20T15:12:19;21.70;86.10
41318;DHT22;27067;51.554;7.026;2023-07-20T15:14:44;21.70;86.40
41318;DHT22;27067;51.554;7.026;2023-07-20T15:17:14;21.70;87.10
41318;DHT22;27067;51.554;7.026;2023-07-20T15:19:40;21.70;87.60
41318;DHT22;27067;51.554;7.026;2023-07-20T15:22:06;21.80;87.60
41318;DHT22;27067;51.554;7.026;2023-07-20T15:24:32;21.70;87.50
41318;DHT22;27067;51.554;7.026;2023-07-20T15:26:58;21.80;87.50
41318;DHT22;27067;51.554;7.026;2023-07-20T15:29:24;21.80;87.60
41318;DHT22;27067;51.554;7.026;2023-07-20T15:31:49;21.80;87.60
41318;DHT22;27067;51.554;7.026;2023-07-20T15:34:15;21.80;87.60
41318;DHT22;27067;51.554;7.026;2023-07-20T15:36:40;21.80;87.70
41318;DHT22;27067;51.554;7.026;2023-07-20T15:39:06;21.80;87.70
41318;DHT22;27067;51.554;7.026;2023-07-20T15:41:32;21.80;87.80
41318;DHT22;27067;51.554;7.026;2023-07-20T15:43:58;21.80;87.90